NGN411 LPMA-EDDK
Flight info
| Callsign | NGN411 |
|---|---|
| Flight time | 3h 39m |
| Altitude | 34000 |
| Route | DEGUN1E DEGUN DCT ROLAR DCT ASMAR DCT DEMOS/N0433F360 DCT LOTEE DCT AZFIC DCT ERIGA DCT MOKOR UN741 NTS DCT PIWIZ/N0425F340 DCT TSU DCT OQQAL DCT RANUX/N0414F310 DCT VALEK DCT LUTAX/N0365F230 UM163 DIK N853 ARCKY T853 IBESA T860 ERUKI ERUKI1B |
| Aircraft | A320/M-SDE3FGHIJ1LORVWXY/SB1 |
Departure
| Time | 2026-04-26 13:53 |
|---|---|
| Airport | Cristiano Ronaldo International Airport (LPMA) |
Arrival
| Time | 2026-04-26 17:33 |
|---|---|
| Airport | Cologne Bonn Airport (EDDK) |
| Time | Latitude | Longitude | Altitude | Speed | Heading |
|---|---|---|---|---|---|
| 2026-04-26 12:44 | 32.69413 | -16.77592 | 169 ft | 0 kts | 138° |
| 2026-04-26 13:43 | 32.69419 | -16.77598 | 169 ft | 4 kts | 138° |
| 2026-04-26 13:43 | 32.69438 | -16.77618 | 169 ft | 2 kts | 138° |
| 2026-04-26 13:43 | 32.69456 | -16.77633 | 169 ft | 4 kts | 175° |
| 2026-04-26 13:44 | 32.69477 | -16.77624 | 169 ft | 4 kts | 225° |
| 2026-04-26 13:44 | 32.69494 | -16.77603 | 169 ft | 2 kts | 226° |
| 2026-04-26 13:44 | 32.69495 | -16.77601 | 169 ft | 0 kts | 226° |
| 2026-04-26 13:47 | 32.69492 | -16.77605 | 169 ft | 1 kts | 226° |
| 2026-04-26 13:47 | 32.69486 | -16.77613 | 169 ft | 3 kts | 226° |
| 2026-04-26 13:48 | 32.69467 | -16.77636 | 169 ft | 5 kts | 226° |
| 2026-04-26 13:48 | 32.69441 | -16.77668 | 169 ft | 6 kts | 226° |
| 2026-04-26 13:48 | 32.69408 | -16.77710 | 169 ft | 8 kts | 226° |
| 2026-04-26 13:48 | 32.69369 | -16.77757 | 169 ft | 9 kts | 226° |
| 2026-04-26 13:49 | 32.69325 | -16.77810 | 169 ft | 9 kts | 226° |
| 2026-04-26 13:49 | 32.69294 | -16.77853 | 169 ft | 5 kts | 239° |
| 2026-04-26 13:49 | 32.69289 | -16.77875 | 169 ft | 0 kts | 263° |
| 2026-04-26 13:50 | 32.69288 | -16.77890 | 169 ft | 4 kts | 268° |
| 2026-04-26 13:50 | 32.69288 | -16.77931 | 169 ft | 6 kts | 270° |
| 2026-04-26 13:50 | 32.69288 | -16.77984 | 169 ft | 7 kts | 269° |
| 2026-04-26 13:50 | 32.69272 | -16.78047 | 168 ft | 9 kts | 239° |
| 2026-04-26 13:51 | 32.69219 | -16.78112 | 166 ft | 13 kts | 224° |
| 2026-04-26 13:51 | 32.69146 | -16.78196 | 162 ft | 17 kts | 224° |
| 2026-04-26 13:51 | 32.69052 | -16.78306 | 156 ft | 21 kts | 224° |
| 2026-04-26 13:51 | 32.68960 | -16.78391 | 156 ft | 13 kts | 201° |
| 2026-04-26 13:52 | 32.68893 | -16.78426 | 153 ft | 8 kts | 231° |
| 2026-04-26 13:52 | 32.68909 | -16.78468 | 153 ft | 4 kts | 350° |
| 2026-04-26 13:52 | 32.68936 | -16.78443 | 153 ft | 6 kts | 46° |
| 2026-04-26 13:52 | 32.69035 | -16.78328 | 156 ft | 51 kts | 44° |
| 2026-04-26 13:53 | 32.69458 | -16.77835 | 172 ft | 117 kts | 44° |
| 2026-04-26 13:53 | 32.70169 | -16.77006 | 303 ft | 157 kts | 42° |
| 2026-04-26 13:53 | 32.70859 | -16.76064 | 1114 ft | 153 kts | 60° |
| 2026-04-26 13:53 | 32.71149 | -16.74846 | 1935 ft | 153 kts | 87° |
| 2026-04-26 13:54 | 32.70897 | -16.73627 | 2554 ft | 157 kts | 107° |
| 2026-04-26 13:54 | 32.70501 | -16.72410 | 2991 ft | 158 kts | 107° |
| 2026-04-26 13:54 | 32.70109 | -16.71185 | 3429 ft | 160 kts | 107° |
| 2026-04-26 13:55 | 32.69227 | -16.68404 | 3829 ft | 200 kts | 107° |
| 2026-04-26 13:55 | 32.68890 | -16.67352 | 4011 ft | 211 kts | 107° |
| 2026-04-26 13:55 | 32.67560 | -16.63197 | 4822 ft | 253 kts | 107° |
| 2026-04-26 13:56 | 32.66935 | -16.61219 | 5489 ft | 259 kts | 108° |
| 2026-04-26 13:56 | 32.66300 | -16.59211 | 6288 ft | 261 kts | 108° |
| 2026-04-26 13:56 | 32.65806 | -16.57165 | 7002 ft | 262 kts | 95° |
| 2026-04-26 13:56 | 32.65873 | -16.55007 | 7715 ft | 263 kts | 77° |
| 2026-04-26 13:57 | 32.66544 | -16.52980 | 8429 ft | 267 kts | 59° |
| 2026-04-26 13:57 | 32.67748 | -16.51277 | 9076 ft | 274 kts | 45° |
| 2026-04-26 13:57 | 32.69134 | -16.49703 | 9767 ft | 277 kts | 45° |
| 2026-04-26 13:57 | 32.70535 | -16.48116 | 10374 ft | 284 kts | 45° |
| 2026-04-26 13:58 | 32.72014 | -16.46431 | 10521 ft | 306 kts | 45° |
| 2026-04-26 13:58 | 32.73600 | -16.44624 | 10733 ft | 323 kts | 45° |
| 2026-04-26 13:58 | 32.75241 | -16.42755 | 11202 ft | 330 kts | 44° |
| 2026-04-26 13:58 | 32.76909 | -16.40853 | 11791 ft | 334 kts | 45° |
| 2026-04-26 13:59 | 32.78594 | -16.38926 | 12406 ft | 337 kts | 44° |
| 2026-04-26 13:59 | 32.80295 | -16.36981 | 12973 ft | 341 kts | 44° |
| 2026-04-26 13:59 | 32.82011 | -16.35018 | 13618 ft | 343 kts | 44° |
| 2026-04-26 14:00 | 32.87217 | -16.29054 | 15208 ft | 352 kts | 44° |
| 2026-04-26 14:00 | 32.88990 | -16.27023 | 15735 ft | 355 kts | 44° |
| 2026-04-26 14:00 | 32.90195 | -16.25640 | 16051 ft | 358 kts | 44° |
| 2026-04-26 14:01 | 32.92580 | -16.22899 | 16694 ft | 362 kts | 44° |
| 2026-04-26 14:01 | 32.94401 | -16.20802 | 17183 ft | 366 kts | 44° |
| 2026-04-26 14:01 | 32.96248 | -16.18681 | 17692 ft | 369 kts | 44° |
| 2026-04-26 14:01 | 32.98108 | -16.16546 | 18194 ft | 373 kts | 44° |
| 2026-04-26 14:02 | 32.99984 | -16.14391 | 18665 ft | 376 kts | 44° |
| 2026-04-26 14:02 | 33.01872 | -16.12218 | 19126 ft | 379 kts | 44° |
| 2026-04-26 14:02 | 33.03777 | -16.10022 | 19586 ft | 382 kts | 44° |
| 2026-04-26 14:02 | 33.05691 | -16.07814 | 20065 ft | 385 kts | 44° |
| 2026-04-26 14:03 | 33.07631 | -16.05576 | 20534 ft | 388 kts | 44° |
| 2026-04-26 14:03 | 33.09576 | -16.03333 | 21004 ft | 391 kts | 44° |
| 2026-04-26 14:03 | 33.11542 | -16.01063 | 21460 ft | 394 kts | 43° |
| 2026-04-26 14:03 | 33.13518 | -15.98779 | 21906 ft | 397 kts | 44° |
| 2026-04-26 14:04 | 33.15513 | -15.96473 | 22322 ft | 400 kts | 44° |
| 2026-04-26 14:04 | 33.17517 | -15.94155 | 22737 ft | 404 kts | 44° |
| 2026-04-26 14:04 | 33.19515 | -15.91838 | 23145 ft | 407 kts | 44° |
| 2026-04-26 14:04 | 33.21551 | -15.89475 | 23557 ft | 409 kts | 44° |
| 2026-04-26 14:05 | 33.23601 | -15.87095 | 23915 ft | 412 kts | 43° |
| 2026-04-26 14:05 | 33.25664 | -15.84699 | 24249 ft | 415 kts | 43° |
| 2026-04-26 14:05 | 33.27746 | -15.82280 | 24581 ft | 418 kts | 44° |
| 2026-04-26 14:05 | 33.29834 | -15.79856 | 24910 ft | 420 kts | 44° |
| 2026-04-26 14:06 | 33.31934 | -15.77416 | 25224 ft | 422 kts | 44° |
| 2026-04-26 14:06 | 33.34047 | -15.74955 | 25550 ft | 425 kts | 44° |
| 2026-04-26 14:06 | 33.35450 | -15.73321 | 25754 ft | 427 kts | 44° |
| 2026-04-26 14:06 | 33.37581 | -15.70835 | 26066 ft | 429 kts | 44° |
| 2026-04-26 14:07 | 33.39721 | -15.68341 | 26366 ft | 431 kts | 43° |
| 2026-04-26 14:07 | 33.42041 | -15.66064 | 26673 ft | 433 kts | 33° |
| 2026-04-26 14:07 | 33.44653 | -15.64245 | 26956 ft | 435 kts | 25° |
| 2026-04-26 14:07 | 33.47391 | -15.62705 | 27239 ft | 437 kts | 25° |
| 2026-04-26 14:08 | 33.50152 | -15.61151 | 27498 ft | 440 kts | 25° |
| 2026-04-26 14:08 | 33.52937 | -15.59575 | 27798 ft | 442 kts | 25° |
| 2026-04-26 14:08 | 33.55730 | -15.57989 | 28092 ft | 444 kts | 25° |
| 2026-04-26 14:08 | 33.58531 | -15.56396 | 28396 ft | 446 kts | 25° |
| 2026-04-26 14:09 | 33.61312 | -15.54818 | 28675 ft | 448 kts | 25° |
| 2026-04-26 14:09 | 33.64136 | -15.53218 | 28991 ft | 450 kts | 25° |
| 2026-04-26 14:09 | 33.66968 | -15.51609 | 29423 ft | 448 kts | 26° |
| 2026-04-26 14:09 | 33.69783 | -15.50005 | 29825 ft | 448 kts | 26° |
| 2026-04-26 14:10 | 33.72599 | -15.48399 | 30240 ft | 447 kts | 26° |
| 2026-04-26 14:10 | 33.75409 | -15.46799 | 30581 ft | 447 kts | 26° |
| 2026-04-26 14:10 | 33.78226 | -15.45198 | 30920 ft | 446 kts | 26° |
| 2026-04-26 14:10 | 33.81036 | -15.43598 | 31226 ft | 447 kts | 26° |
| 2026-04-26 14:11 | 33.86640 | -15.40394 | 31920 ft | 446 kts | 26° |
| 2026-04-26 14:11 | 33.89438 | -15.38791 | 32304 ft | 444 kts | 26° |
| 2026-04-26 14:11 | 33.92231 | -15.37191 | 32651 ft | 444 kts | 26° |
| 2026-04-26 14:12 | 33.95014 | -15.35598 | 32992 ft | 443 kts | 26° |
| 2026-04-26 14:12 | 33.97798 | -15.34001 | 33343 ft | 442 kts | 26° |
| 2026-04-26 14:12 | 34.00577 | -15.32405 | 33674 ft | 442 kts | 26° |
| 2026-04-26 14:12 | 34.03318 | -15.30828 | 34012 ft | 441 kts | 26° |
| 2026-04-26 14:13 | 34.08906 | -15.27614 | 34148 ft | 448 kts | 26° |
| 2026-04-26 14:13 | 34.11732 | -15.25991 | 34157 ft | 451 kts | 26° |
| 2026-04-26 14:14 | 34.17407 | -15.22736 | 34143 ft | 452 kts | 26° |
| 2026-04-26 14:14 | 34.23067 | -15.19435 | 34140 ft | 451 kts | 27° |
| 2026-04-26 14:15 | 34.28611 | -15.15880 | 34146 ft | 451 kts | 30° |
| 2026-04-26 14:15 | 34.34067 | -15.12232 | 34155 ft | 451 kts | 30° |
| 2026-04-26 14:16 | 34.39572 | -15.08591 | 34160 ft | 451 kts | 30° |
| 2026-04-26 14:16 | 34.45108 | -15.04988 | 34161 ft | 451 kts | 29° |
| 2026-04-26 14:17 | 34.50641 | -15.01394 | 34161 ft | 451 kts | 29° |
| 2026-04-26 14:17 | 34.56177 | -14.97778 | 34166 ft | 451 kts | 29° |
| 2026-04-26 14:18 | 34.61661 | -14.94187 | 34170 ft | 451 kts | 29° |
| 2026-04-26 14:18 | 34.67178 | -14.90565 | 34169 ft | 449 kts | 29° |
| 2026-04-26 14:19 | 34.72678 | -14.86955 | 34176 ft | 448 kts | 29° |
| 2026-04-26 14:19 | 34.78157 | -14.83344 | 34177 ft | 448 kts | 29° |
| 2026-04-26 14:20 | 34.83633 | -14.79736 | 34173 ft | 447 kts | 29° |
| 2026-04-26 14:20 | 34.89104 | -14.76117 | 34171 ft | 447 kts | 29° |
| 2026-04-26 14:21 | 34.94572 | -14.72508 | 34170 ft | 447 kts | 29° |
| 2026-04-26 14:21 | 35.00015 | -14.68922 | 34170 ft | 446 kts | 30° |
| 2026-04-26 14:22 | 35.05476 | -14.65301 | 34168 ft | 446 kts | 29° |
| 2026-04-26 14:22 | 35.10928 | -14.61673 | 34167 ft | 447 kts | 30° |
| 2026-04-26 14:23 | 35.16387 | -14.58039 | 34172 ft | 447 kts | 30° |
| 2026-04-26 14:23 | 35.21852 | -14.54400 | 34161 ft | 447 kts | 30° |
| 2026-04-26 14:24 | 35.27329 | -14.50751 | 34157 ft | 448 kts | 30° |
| 2026-04-26 14:24 | 35.32802 | -14.47106 | 34154 ft | 448 kts | 30° |
| 2026-04-26 14:25 | 35.38287 | -14.43438 | 34155 ft | 449 kts | 30° |
| 2026-04-26 14:25 | 35.43739 | -14.39776 | 34162 ft | 449 kts | 31° |
| 2026-04-26 14:26 | 35.49217 | -14.36096 | 34169 ft | 449 kts | 31° |
| 2026-04-26 14:26 | 35.54697 | -14.32412 | 34166 ft | 449 kts | 30° |
| 2026-04-26 14:27 | 35.60179 | -14.28718 | 34170 ft | 449 kts | 30° |
| 2026-04-26 14:27 | 35.65663 | -14.25024 | 34171 ft | 449 kts | 30° |
| 2026-04-26 14:28 | 35.71113 | -14.21345 | 34150 ft | 450 kts | 30° |
| 2026-04-26 14:28 | 35.76611 | -14.17620 | 34144 ft | 452 kts | 31° |
| 2026-04-26 14:29 | 35.82141 | -14.13880 | 34141 ft | 453 kts | 31° |
| 2026-04-26 14:29 | 35.87674 | -14.10134 | 34147 ft | 454 kts | 31° |
| 2026-04-26 14:30 | 35.93217 | -14.06364 | 34158 ft | 454 kts | 31° |
| 2026-04-26 14:30 | 35.98752 | -14.02579 | 34162 ft | 455 kts | 31° |
| 2026-04-26 14:31 | 36.04293 | -13.98805 | 34169 ft | 455 kts | 31° |
| 2026-04-26 14:31 | 36.09830 | -13.95021 | 34171 ft | 455 kts | 31° |
| 2026-04-26 14:32 | 36.15351 | -13.91189 | 34171 ft | 455 kts | 32° |
| 2026-04-26 14:32 | 36.20824 | -13.87254 | 34172 ft | 455 kts | 32° |
| 2026-04-26 14:33 | 36.26287 | -13.83286 | 34162 ft | 455 kts | 32° |
| 2026-04-26 14:33 | 36.31749 | -13.79327 | 34165 ft | 455 kts | 31° |
| 2026-04-26 14:34 | 36.37231 | -13.75378 | 34160 ft | 456 kts | 32° |
| 2026-04-26 14:34 | 36.42724 | -13.71423 | 34165 ft | 456 kts | 32° |
| 2026-04-26 14:35 | 36.48172 | -13.67483 | 34170 ft | 456 kts | 32° |
| 2026-04-26 14:35 | 36.53653 | -13.63512 | 34174 ft | 456 kts | 32° |
| 2026-04-26 14:36 | 36.59133 | -13.59536 | 34168 ft | 456 kts | 32° |
| 2026-04-26 14:36 | 36.64616 | -13.55555 | 34173 ft | 456 kts | 31° |
| 2026-04-26 14:37 | 36.70088 | -13.51565 | 34174 ft | 456 kts | 32° |
| 2026-04-26 14:37 | 36.75559 | -13.47564 | 34171 ft | 455 kts | 32° |
| 2026-04-26 14:38 | 36.81025 | -13.43575 | 34182 ft | 455 kts | 32° |
| 2026-04-26 14:38 | 36.86498 | -13.39582 | 34438 ft | 456 kts | 32° |
| 2026-04-26 14:38 | 36.88309 | -13.38259 | 34586 ft | 456 kts | 32° |
| 2026-04-26 14:39 | 36.91973 | -13.35574 | 34962 ft | 456 kts | 32° |
| 2026-04-26 14:39 | 36.94675 | -13.33592 | 35216 ft | 455 kts | 32° |
| 2026-04-26 14:39 | 36.97405 | -13.31587 | 35478 ft | 454 kts | 31° |
| 2026-04-26 14:39 | 37.00124 | -13.29587 | 35756 ft | 453 kts | 31° |
| 2026-04-26 14:40 | 37.02834 | -13.27585 | 35969 ft | 453 kts | 31° |
| 2026-04-26 14:40 | 37.05551 | -13.25573 | 36139 ft | 453 kts | 31° |
| 2026-04-26 14:40 | 37.08268 | -13.23565 | 36169 ft | 453 kts | 31° |
| 2026-04-26 14:41 | 37.13696 | -13.19563 | 36167 ft | 452 kts | 31° |
| 2026-04-26 14:41 | 37.19127 | -13.15560 | 36164 ft | 452 kts | 31° |
| 2026-04-26 14:42 | 37.24552 | -13.11538 | 36171 ft | 454 kts | 31° |
| 2026-04-26 14:42 | 37.30013 | -13.07493 | 36173 ft | 456 kts | 31° |
| 2026-04-26 14:43 | 37.35478 | -13.03436 | 36159 ft | 456 kts | 31° |
| 2026-04-26 14:43 | 37.40946 | -12.99368 | 36153 ft | 457 kts | 31° |
| 2026-04-26 14:44 | 37.46421 | -12.95291 | 36157 ft | 457 kts | 31° |
| 2026-04-26 14:44 | 37.51902 | -12.91196 | 36166 ft | 458 kts | 31° |
| 2026-04-26 14:45 | 37.57381 | -12.87096 | 36168 ft | 458 kts | 31° |
| 2026-04-26 14:45 | 37.62835 | -12.83006 | 36176 ft | 458 kts | 31° |
| 2026-04-26 14:46 | 37.68322 | -12.78890 | 36174 ft | 458 kts | 31° |
| 2026-04-26 14:46 | 37.73818 | -12.74755 | 36170 ft | 458 kts | 31° |
| 2026-04-26 14:47 | 37.79297 | -12.70618 | 36167 ft | 459 kts | 31° |
| 2026-04-26 14:47 | 37.84787 | -12.66478 | 36168 ft | 459 kts | 31° |
| 2026-04-26 14:48 | 37.90273 | -12.62334 | 36169 ft | 459 kts | 31° |
| 2026-04-26 14:48 | 37.95765 | -12.58178 | 36166 ft | 459 kts | 31° |
| 2026-04-26 14:49 | 38.01213 | -12.54045 | 36172 ft | 459 kts | 31° |
| 2026-04-26 14:49 | 38.06699 | -12.49871 | 36173 ft | 459 kts | 31° |
| 2026-04-26 14:50 | 38.12181 | -12.45698 | 36166 ft | 459 kts | 31° |
| 2026-04-26 14:50 | 38.17671 | -12.41510 | 36175 ft | 459 kts | 31° |
| 2026-04-26 14:51 | 38.23153 | -12.37328 | 36165 ft | 459 kts | 31° |
| 2026-04-26 14:51 | 38.27707 | -12.33843 | 36182 ft | 459 kts | 30° |
| 2026-04-26 14:52 | 38.33176 | -12.29652 | 36175 ft | 458 kts | 30° |
| 2026-04-26 14:52 | 38.38639 | -12.25455 | 36169 ft | 458 kts | 30° |
| 2026-04-26 14:53 | 38.44095 | -12.21256 | 36174 ft | 458 kts | 30° |
| 2026-04-26 14:53 | 38.49565 | -12.17044 | 36170 ft | 458 kts | 30° |
| 2026-04-26 14:54 | 38.55017 | -12.12831 | 36173 ft | 458 kts | 30° |
| 2026-04-26 14:54 | 38.60480 | -12.08606 | 36184 ft | 458 kts | 30° |
| 2026-04-26 14:55 | 38.65895 | -12.04412 | 36177 ft | 458 kts | 30° |
| 2026-04-26 14:55 | 38.71343 | -12.00183 | 36171 ft | 458 kts | 30° |
| 2026-04-26 14:56 | 38.76791 | -11.95951 | 36181 ft | 457 kts | 30° |
| 2026-04-26 14:56 | 38.82231 | -11.91720 | 36176 ft | 457 kts | 30° |
| 2026-04-26 14:57 | 38.87665 | -11.87470 | 36169 ft | 457 kts | 30° |
| 2026-04-26 14:57 | 38.93100 | -11.83214 | 36169 ft | 457 kts | 30° |
| 2026-04-26 14:58 | 38.98532 | -11.78963 | 36174 ft | 457 kts | 30° |
| 2026-04-26 14:58 | 39.03964 | -11.74706 | 36171 ft | 457 kts | 30° |
| 2026-04-26 14:59 | 39.09389 | -11.70436 | 36167 ft | 457 kts | 30° |
| 2026-04-26 14:59 | 39.14807 | -11.66167 | 36173 ft | 457 kts | 30° |
| 2026-04-26 15:00 | 39.20232 | -11.61895 | 36168 ft | 456 kts | 30° |
| 2026-04-26 15:00 | 39.25648 | -11.57614 | 36181 ft | 456 kts | 30° |
| 2026-04-26 15:01 | 39.31020 | -11.53355 | 36180 ft | 455 kts | 30° |
| 2026-04-26 15:01 | 39.36424 | -11.49072 | 36179 ft | 455 kts | 30° |
| 2026-04-26 15:02 | 39.41810 | -11.44796 | 36180 ft | 454 kts | 30° |
| 2026-04-26 15:02 | 39.47200 | -11.40506 | 36177 ft | 454 kts | 30° |
| 2026-04-26 15:03 | 39.52576 | -11.36206 | 36176 ft | 454 kts | 30° |
| 2026-04-26 15:03 | 39.57946 | -11.31907 | 36186 ft | 453 kts | 30° |
| 2026-04-26 15:04 | 39.63321 | -11.27616 | 36169 ft | 453 kts | 30° |
| 2026-04-26 15:04 | 39.68685 | -11.23324 | 36173 ft | 453 kts | 30° |
| 2026-04-26 15:05 | 39.74012 | -11.19042 | 36170 ft | 453 kts | 30° |
| 2026-04-26 15:05 | 39.79366 | -11.14728 | 36171 ft | 452 kts | 31° |
| 2026-04-26 15:06 | 39.84715 | -11.10415 | 36171 ft | 452 kts | 31° |
| 2026-04-26 15:06 | 39.90060 | -11.06103 | 36171 ft | 452 kts | 30° |
| 2026-04-26 15:07 | 39.98069 | -10.99605 | 36168 ft | 452 kts | 30° |
| 2026-04-26 15:07 | 40.03405 | -10.95268 | 36161 ft | 451 kts | 30° |
| 2026-04-26 15:08 | 40.08732 | -10.90938 | 36164 ft | 451 kts | 30° |
| 2026-04-26 15:08 | 40.14063 | -10.86592 | 36163 ft | 451 kts | 30° |
| 2026-04-26 15:09 | 40.19357 | -10.82272 | 36161 ft | 451 kts | 30° |
| 2026-04-26 15:09 | 40.24683 | -10.77913 | 36163 ft | 451 kts | 30° |
| 2026-04-26 15:10 | 40.29103 | -10.74294 | 36166 ft | 451 kts | 30° |
| 2026-04-26 15:10 | 40.35316 | -10.69196 | 36151 ft | 451 kts | 30° |
| 2026-04-26 15:11 | 40.40638 | -10.64816 | 36151 ft | 451 kts | 30° |
| 2026-04-26 15:11 | 40.45952 | -10.60438 | 36154 ft | 451 kts | 30° |
| 2026-04-26 15:12 | 40.51262 | -10.56061 | 36151 ft | 451 kts | 31° |
| 2026-04-26 15:12 | 40.56568 | -10.51671 | 36157 ft | 450 kts | 31° |
| 2026-04-26 15:13 | 40.61864 | -10.47278 | 36154 ft | 450 kts | 30° |
| 2026-04-26 15:13 | 40.67131 | -10.42908 | 36160 ft | 450 kts | 31° |
| 2026-04-26 15:14 | 40.72428 | -10.38504 | 36153 ft | 450 kts | 30° |
| 2026-04-26 15:14 | 40.77721 | -10.34078 | 36149 ft | 450 kts | 30° |
| 2026-04-26 15:15 | 40.83010 | -10.29653 | 36147 ft | 450 kts | 30° |
| 2026-04-26 15:15 | 40.88299 | -10.25222 | 36141 ft | 450 kts | 31° |
| 2026-04-26 15:16 | 40.93591 | -10.20781 | 36141 ft | 451 kts | 30° |
| 2026-04-26 15:16 | 40.98884 | -10.16340 | 36143 ft | 450 kts | 31° |
| 2026-04-26 15:17 | 41.03291 | -10.12643 | 36137 ft | 450 kts | 31° |
| 2026-04-26 15:17 | 41.09469 | -10.07438 | 36142 ft | 450 kts | 31° |
| 2026-04-26 15:18 | 41.14750 | -10.02969 | 36144 ft | 450 kts | 31° |
| 2026-04-26 15:18 | 41.20042 | -9.98484 | 36139 ft | 450 kts | 31° |
| 2026-04-26 15:19 | 41.25334 | -9.94004 | 36132 ft | 451 kts | 31° |
| 2026-04-26 15:19 | 41.30590 | -9.89536 | 36132 ft | 451 kts | 31° |
| 2026-04-26 15:20 | 41.35873 | -9.85036 | 36143 ft | 451 kts | 30° |
| 2026-04-26 15:20 | 41.41166 | -9.80524 | 36131 ft | 451 kts | 31° |
| 2026-04-26 15:21 | 41.46458 | -9.75996 | 36137 ft | 451 kts | 31° |
| 2026-04-26 15:21 | 41.51743 | -9.71471 | 36137 ft | 451 kts | 31° |
| 2026-04-26 15:22 | 41.57027 | -9.66938 | 36129 ft | 451 kts | 31° |
| 2026-04-26 15:22 | 41.62307 | -9.62392 | 36129 ft | 452 kts | 31° |
| 2026-04-26 15:23 | 41.67596 | -9.57825 | 36122 ft | 452 kts | 31° |
| 2026-04-26 15:23 | 41.72896 | -9.53257 | 36116 ft | 452 kts | 31° |
| 2026-04-26 15:24 | 41.78160 | -9.48709 | 36117 ft | 453 kts | 31° |
| 2026-04-26 15:24 | 41.83452 | -9.44127 | 36124 ft | 453 kts | 31° |
| 2026-04-26 15:25 | 41.87883 | -9.40277 | 36122 ft | 453 kts | 31° |
| 2026-04-26 15:25 | 41.93874 | -9.34637 | 36115 ft | 454 kts | 41° |
| 2026-04-26 15:26 | 41.98560 | -9.28951 | 36115 ft | 454 kts | 41° |
| 2026-04-26 15:26 | 42.03253 | -9.23247 | 36110 ft | 454 kts | 41° |
| 2026-04-26 15:27 | 42.07943 | -9.17537 | 36112 ft | 455 kts | 41° |
| 2026-04-26 15:27 | 42.12637 | -9.11820 | 36116 ft | 456 kts | 41° |
| 2026-04-26 15:28 | 42.17334 | -9.06079 | 36093 ft | 456 kts | 41° |
| 2026-04-26 15:28 | 42.22026 | -9.00328 | 36103 ft | 456 kts | 41° |
| 2026-04-26 15:29 | 42.26694 | -8.94602 | 36126 ft | 456 kts | 41° |
| 2026-04-26 15:30 | 42.36092 | -8.83028 | 36101 ft | 458 kts | 41° |
| 2026-04-26 15:30 | 42.40808 | -8.77217 | 36110 ft | 458 kts | 41° |
| 2026-04-26 15:31 | 42.47869 | -8.68471 | 36106 ft | 459 kts | 41° |
| 2026-04-26 15:32 | 42.53368 | -8.61647 | 36114 ft | 458 kts | 41° |
| 2026-04-26 15:32 | 42.59615 | -8.53863 | 36125 ft | 458 kts | 41° |
| 2026-04-26 15:33 | 42.64302 | -8.48005 | 36123 ft | 458 kts | 41° |
| 2026-04-26 15:33 | 42.68203 | -8.43130 | 36122 ft | 458 kts | 41° |
| 2026-04-26 15:34 | 42.73647 | -8.36299 | 36130 ft | 458 kts | 41° |
| 2026-04-26 15:34 | 42.77571 | -8.31371 | 36122 ft | 458 kts | 42° |
| 2026-04-26 15:35 | 42.82262 | -8.25476 | 36134 ft | 458 kts | 42° |
| 2026-04-26 15:35 | 42.86935 | -8.19575 | 36136 ft | 458 kts | 42° |
| 2026-04-26 15:36 | 42.91581 | -8.13711 | 36139 ft | 458 kts | 42° |
| 2026-04-26 15:36 | 42.96254 | -8.07802 | 36150 ft | 458 kts | 42° |
| 2026-04-26 15:37 | 43.00920 | -8.01869 | 36131 ft | 459 kts | 42° |
| 2026-04-26 15:37 | 43.05595 | -7.95924 | 36129 ft | 459 kts | 42° |
| 2026-04-26 15:38 | 43.10272 | -7.89962 | 36138 ft | 459 kts | 42° |
| 2026-04-26 15:38 | 43.14941 | -7.83989 | 36138 ft | 459 kts | 42° |
| 2026-04-26 15:39 | 43.19593 | -7.78037 | 36138 ft | 461 kts | 42° |
| 2026-04-26 15:39 | 43.23524 | -7.72993 | 36129 ft | 462 kts | 42° |
| 2026-04-26 15:40 | 43.28976 | -7.65977 | 36130 ft | 463 kts | 42° |
| 2026-04-26 15:40 | 43.33677 | -7.59923 | 36139 ft | 463 kts | 42° |
| 2026-04-26 15:41 | 43.38373 | -7.53849 | 36169 ft | 464 kts | 42° |
| 2026-04-26 15:41 | 43.43064 | -7.47768 | 36169 ft | 464 kts | 42° |
| 2026-04-26 15:42 | 43.47770 | -7.41672 | 36175 ft | 464 kts | 42° |
| 2026-04-26 15:42 | 43.52470 | -7.35564 | 36184 ft | 465 kts | 42° |
| 2026-04-26 15:43 | 43.57172 | -7.29435 | 36186 ft | 465 kts | 43° |
| 2026-04-26 15:44 | 43.64189 | -7.20255 | 36191 ft | 466 kts | 42° |
| 2026-04-26 15:44 | 43.71240 | -7.11000 | 36196 ft | 466 kts | 43° |
| 2026-04-26 15:45 | 43.78285 | -7.01730 | 36203 ft | 466 kts | 43° |
| 2026-04-26 15:46 | 43.85330 | -6.92414 | 36203 ft | 467 kts | 43° |
| 2026-04-26 15:46 | 43.89237 | -6.87242 | 36195 ft | 468 kts | 42° |
| 2026-04-26 15:47 | 43.97089 | -6.76819 | 36202 ft | 468 kts | 43° |
| 2026-04-26 15:48 | 44.01779 | -6.70562 | 36207 ft | 468 kts | 43° |
| 2026-04-26 15:48 | 44.06474 | -6.64295 | 36213 ft | 468 kts | 43° |
| 2026-04-26 15:49 | 44.11138 | -6.58061 | 36198 ft | 468 kts | 43° |
| 2026-04-26 15:49 | 44.15835 | -6.51758 | 36201 ft | 469 kts | 43° |
| 2026-04-26 15:50 | 44.20566 | -6.45408 | 36193 ft | 469 kts | 43° |
| 2026-04-26 15:50 | 44.25226 | -6.39134 | 36211 ft | 469 kts | 43° |
| 2026-04-26 15:51 | 44.29910 | -6.32789 | 36210 ft | 469 kts | 43° |
| 2026-04-26 15:51 | 44.34587 | -6.26445 | 36210 ft | 469 kts | 43° |
| 2026-04-26 15:52 | 44.39275 | -6.20081 | 36204 ft | 469 kts | 43° |
| 2026-04-26 15:52 | 44.43948 | -6.13725 | 36210 ft | 469 kts | 43° |
| 2026-04-26 15:53 | 44.48631 | -6.07340 | 36201 ft | 469 kts | 43° |
| 2026-04-26 15:53 | 44.53279 | -6.00983 | 36211 ft | 469 kts | 43° |
| 2026-04-26 15:54 | 44.57943 | -5.94599 | 36208 ft | 469 kts | 43° |
| 2026-04-26 15:54 | 44.62604 | -5.88203 | 36209 ft | 468 kts | 43° |
| 2026-04-26 15:55 | 44.67265 | -5.81778 | 36206 ft | 468 kts | 43° |
| 2026-04-26 15:55 | 44.71928 | -5.75396 | 36209 ft | 468 kts | 43° |
| 2026-04-26 15:56 | 44.76612 | -5.69001 | 36204 ft | 468 kts | 43° |
| 2026-04-26 15:56 | 44.81270 | -5.62613 | 36213 ft | 467 kts | 43° |
| 2026-04-26 15:57 | 44.85887 | -5.56253 | 36222 ft | 466 kts | 43° |
| 2026-04-26 15:57 | 44.90526 | -5.49840 | 36216 ft | 467 kts | 43° |
| 2026-04-26 15:58 | 44.95167 | -5.43431 | 36209 ft | 467 kts | 43° |
| 2026-04-26 15:58 | 44.99811 | -5.36996 | 36204 ft | 468 kts | 43° |
| 2026-04-26 15:59 | 45.04446 | -5.30540 | 36206 ft | 467 kts | 43° |
| 2026-04-26 15:59 | 45.09068 | -5.24085 | 36216 ft | 466 kts | 43° |
| 2026-04-26 16:00 | 45.13689 | -5.17640 | 36215 ft | 466 kts | 43° |
| 2026-04-26 16:00 | 45.18306 | -5.11191 | 36210 ft | 466 kts | 43° |
| 2026-04-26 16:01 | 45.22920 | -5.04711 | 36209 ft | 466 kts | 44° |
| 2026-04-26 16:01 | 45.27521 | -4.98220 | 36208 ft | 466 kts | 44° |
| 2026-04-26 16:02 | 45.32120 | -4.91737 | 36218 ft | 465 kts | 44° |
| 2026-04-26 16:02 | 45.36685 | -4.85287 | 36215 ft | 465 kts | 44° |
| 2026-04-26 16:03 | 45.41274 | -4.78793 | 36212 ft | 465 kts | 44° |
| 2026-04-26 16:03 | 45.45860 | -4.72285 | 36208 ft | 465 kts | 44° |
| 2026-04-26 16:04 | 45.50429 | -4.65765 | 36206 ft | 465 kts | 44° |
| 2026-04-26 16:04 | 45.55002 | -4.59231 | 36214 ft | 465 kts | 44° |
| 2026-04-26 16:05 | 45.59563 | -4.52699 | 36208 ft | 464 kts | 44° |
| 2026-04-26 16:05 | 45.64085 | -4.46207 | 36207 ft | 464 kts | 44° |
| 2026-04-26 16:06 | 45.68637 | -4.39662 | 36207 ft | 464 kts | 44° |
| 2026-04-26 16:06 | 45.73186 | -4.33114 | 36209 ft | 464 kts | 44° |
| 2026-04-26 16:07 | 45.77728 | -4.26556 | 36207 ft | 464 kts | 44° |
| 2026-04-26 16:07 | 45.82264 | -4.19982 | 36201 ft | 463 kts | 44° |
| 2026-04-26 16:08 | 45.86799 | -4.13391 | 36202 ft | 464 kts | 44° |
| 2026-04-26 16:08 | 45.91327 | -4.06798 | 36215 ft | 464 kts | 44° |
| 2026-04-26 16:09 | 45.95860 | -4.00177 | 36202 ft | 465 kts | 44° |
| 2026-04-26 16:09 | 46.00400 | -3.93538 | 36199 ft | 465 kts | 44° |
| 2026-04-26 16:10 | 46.04941 | -3.86888 | 36210 ft | 465 kts | 44° |
| 2026-04-26 16:10 | 46.09433 | -3.80283 | 36211 ft | 464 kts | 44° |
| 2026-04-26 16:11 | 46.13946 | -3.73623 | 36213 ft | 464 kts | 44° |
| 2026-04-26 16:11 | 46.18465 | -3.66940 | 36211 ft | 464 kts | 44° |
| 2026-04-26 16:12 | 46.22973 | -3.60264 | 36216 ft | 464 kts | 44° |
| 2026-04-26 16:12 | 46.29732 | -3.50218 | 36219 ft | 463 kts | 45° |
| 2026-04-26 16:13 | 46.34214 | -3.43536 | 36223 ft | 463 kts | 45° |
| 2026-04-26 16:13 | 46.38693 | -3.36836 | 36219 ft | 463 kts | 45° |
| 2026-04-26 16:14 | 46.43144 | -3.30162 | 36216 ft | 463 kts | 45° |
| 2026-04-26 16:15 | 46.49856 | -3.20072 | 36209 ft | 463 kts | 45° |
| 2026-04-26 16:15 | 46.54314 | -3.13336 | 36227 ft | 463 kts | 45° |
| 2026-04-26 16:16 | 46.58288 | -3.05985 | 36221 ft | 463 kts | 59° |
| 2026-04-26 16:16 | 46.59908 | -3.01945 | 36221 ft | 463 kts | 59° |
| 2026-04-26 16:16 | 46.63172 | -2.93841 | 36218 ft | 463 kts | 59° |
| 2026-04-26 16:17 | 46.66421 | -2.85747 | 36214 ft | 463 kts | 59° |
| 2026-04-26 16:17 | 46.69665 | -2.77617 | 36213 ft | 463 kts | 59° |
| 2026-04-26 16:18 | 46.74489 | -2.65482 | 36213 ft | 463 kts | 59° |
| 2026-04-26 16:19 | 46.79332 | -2.53278 | 36212 ft | 463 kts | 59° |
| 2026-04-26 16:20 | 46.83605 | -2.42446 | 36200 ft | 462 kts | 59° |
| 2026-04-26 16:20 | 46.88468 | -2.30278 | 36204 ft | 461 kts | 58° |
| 2026-04-26 16:21 | 46.91869 | -2.22320 | 36198 ft | 461 kts | 57° |
| 2026-04-26 16:21 | 46.95276 | -2.14361 | 36208 ft | 461 kts | 57° |
| 2026-04-26 16:22 | 46.98640 | -2.06364 | 36201 ft | 461 kts | 58° |
| 2026-04-26 16:22 | 47.01963 | -1.98330 | 36198 ft | 461 kts | 59° |
| 2026-04-26 16:23 | 47.05125 | -1.90172 | 36196 ft | 460 kts | 60° |
| 2026-04-26 16:23 | 47.08224 | -1.81939 | 36196 ft | 460 kts | 60° |
| 2026-04-26 16:24 | 47.11308 | -1.73784 | 36181 ft | 460 kts | 60° |
| 2026-04-26 16:24 | 47.14443 | -1.65589 | 36181 ft | 459 kts | 59° |
| 2026-04-26 16:25 | 47.17603 | -1.57416 | 36196 ft | 459 kts | 58° |
| 2026-04-26 16:25 | 47.20888 | -1.49372 | 36187 ft | 458 kts | 57° |
| 2026-04-26 16:26 | 47.24193 | -1.41410 | 36182 ft | 459 kts | 57° |
| 2026-04-26 16:26 | 47.27485 | -1.33351 | 36181 ft | 459 kts | 58° |
| 2026-04-26 16:27 | 47.30740 | -1.25263 | 36184 ft | 459 kts | 58° |
| 2026-04-26 16:27 | 47.33989 | -1.17156 | 36188 ft | 458 kts | 58° |
| 2026-04-26 16:28 | 47.37235 | -1.09060 | 36190 ft | 458 kts | 58° |
| 2026-04-26 16:28 | 47.40475 | -1.00969 | 36190 ft | 457 kts | 58° |
| 2026-04-26 16:29 | 47.43708 | -0.92866 | 36188 ft | 458 kts | 58° |
| 2026-04-26 16:29 | 47.46912 | -0.84799 | 36184 ft | 458 kts | 58° |
| 2026-04-26 16:30 | 47.50132 | -0.76686 | 36195 ft | 457 kts | 58° |
| 2026-04-26 16:30 | 47.53344 | -0.68567 | 36200 ft | 456 kts | 58° |
| 2026-04-26 16:31 | 47.56539 | -0.60460 | 36204 ft | 455 kts | 58° |
| 2026-04-26 16:31 | 47.59722 | -0.52365 | 36212 ft | 455 kts | 58° |
| 2026-04-26 16:32 | 47.62367 | -0.45619 | 36205 ft | 455 kts | 58° |
| 2026-04-26 16:32 | 47.66082 | -0.36123 | 36198 ft | 455 kts | 58° |
| 2026-04-26 16:33 | 47.69251 | -0.27976 | 36199 ft | 456 kts | 58° |
| 2026-04-26 16:33 | 47.72402 | -0.19851 | 36195 ft | 456 kts | 58° |
| 2026-04-26 16:34 | 47.75570 | -0.11676 | 36193 ft | 457 kts | 58° |
| 2026-04-26 16:34 | 47.78740 | -0.03480 | 36190 ft | 457 kts | 58° |
| 2026-04-26 16:35 | 47.81891 | 0.04723 | 36213 ft | 456 kts | 58° |
| 2026-04-26 16:35 | 47.85034 | 0.12935 | 36215 ft | 456 kts | 58° |
| 2026-04-26 16:36 | 47.88168 | 0.21130 | 36217 ft | 455 kts | 58° |
| 2026-04-26 16:36 | 47.91282 | 0.29291 | 36214 ft | 455 kts | 58° |
| 2026-04-26 16:37 | 47.94405 | 0.37497 | 36214 ft | 455 kts | 59° |
| 2026-04-26 16:37 | 47.97010 | 0.44373 | 36211 ft | 454 kts | 58° |
| 2026-04-26 16:38 | 48.00607 | 0.53911 | 36210 ft | 453 kts | 58° |
| 2026-04-26 16:38 | 48.03695 | 0.62109 | 36213 ft | 452 kts | 59° |
| 2026-04-26 16:39 | 48.06778 | 0.70313 | 36213 ft | 452 kts | 59° |
| 2026-04-26 16:39 | 48.09851 | 0.78521 | 36210 ft | 452 kts | 59° |
| 2026-04-26 16:40 | 48.12917 | 0.86732 | 36218 ft | 452 kts | 59° |
| 2026-04-26 16:40 | 48.15982 | 0.94966 | 36214 ft | 452 kts | 59° |
| 2026-04-26 16:41 | 48.19016 | 1.03144 | 36213 ft | 452 kts | 59° |
| 2026-04-26 16:41 | 48.22022 | 1.11431 | 36224 ft | 452 kts | 61° |
| 2026-04-26 16:42 | 48.24718 | 1.19991 | 36213 ft | 454 kts | 64° |
| 2026-04-26 16:42 | 48.27230 | 1.28698 | 36215 ft | 454 kts | 65° |
| 2026-04-26 16:43 | 48.29754 | 1.37389 | 36206 ft | 454 kts | 64° |
| 2026-04-26 16:43 | 48.32340 | 1.46056 | 36209 ft | 455 kts | 63° |
| 2026-04-26 16:44 | 48.34948 | 1.54727 | 36203 ft | 455 kts | 63° |
| 2026-04-26 16:44 | 48.37540 | 1.63420 | 36205 ft | 455 kts | 64° |
| 2026-04-26 16:45 | 48.40110 | 1.72126 | 36216 ft | 455 kts | 64° |
| 2026-04-26 16:45 | 48.42671 | 1.80827 | 36231 ft | 454 kts | 63° |
| 2026-04-26 16:46 | 48.45221 | 1.89527 | 36222 ft | 454 kts | 63° |
| 2026-04-26 16:46 | 48.47764 | 1.98223 | 36225 ft | 453 kts | 63° |
| 2026-04-26 16:47 | 48.50299 | 2.06918 | 36225 ft | 453 kts | 63° |
| 2026-04-26 16:47 | 48.52834 | 2.15635 | 36228 ft | 453 kts | 64° |
| 2026-04-26 16:48 | 48.55341 | 2.24276 | 36239 ft | 452 kts | 63° |
| 2026-04-26 16:48 | 48.57849 | 2.32992 | 36238 ft | 452 kts | 64° |
| 2026-04-26 16:49 | 48.60349 | 2.41705 | 36238 ft | 451 kts | 64° |
| 2026-04-26 16:49 | 48.62849 | 2.50414 | 36246 ft | 451 kts | 64° |
| 2026-04-26 16:50 | 48.65331 | 2.59121 | 36242 ft | 451 kts | 64° |
| 2026-04-26 16:50 | 48.67796 | 2.67789 | 36240 ft | 451 kts | 64° |
| 2026-04-26 16:51 | 48.70261 | 2.76512 | 36240 ft | 450 kts | 64° |
| 2026-04-26 16:51 | 48.72701 | 2.85236 | 36225 ft | 450 kts | 64° |
| 2026-04-26 16:52 | 48.74739 | 2.92496 | 36221 ft | 450 kts | 64° |
| 2026-04-26 16:52 | 48.77601 | 3.02700 | 36219 ft | 450 kts | 64° |
| 2026-04-26 16:53 | 48.80036 | 3.11444 | 36235 ft | 450 kts | 64° |
| 2026-04-26 16:53 | 48.82471 | 3.20193 | 36233 ft | 449 kts | 64° |
| 2026-04-26 16:54 | 48.84913 | 3.28916 | 36230 ft | 447 kts | 60° |
| 2026-04-26 16:54 | 48.86530 | 3.32826 | 36231 ft | 440 kts | 46° |
| 2026-04-26 16:54 | 48.88542 | 3.36390 | 36231 ft | 439 kts | 45° |
| 2026-04-26 16:55 | 48.92525 | 3.43346 | 36220 ft | 439 kts | 45° |
| 2026-04-26 16:55 | 48.96564 | 3.50398 | 36228 ft | 439 kts | 45° |
| 2026-04-26 16:56 | 49.02535 | 3.60919 | 36229 ft | 439 kts | 45° |
| 2026-04-26 16:57 | 49.06529 | 3.67957 | 36230 ft | 439 kts | 45° |
| 2026-04-26 16:57 | 49.12508 | 3.78527 | 36229 ft | 439 kts | 45° |
| 2026-04-26 16:58 | 49.15176 | 3.83263 | 36230 ft | 439 kts | 45° |
| 2026-04-26 16:59 | 49.22457 | 3.96231 | 36223 ft | 439 kts | 45° |
| 2026-04-26 17:00 | 49.30378 | 4.10417 | 36225 ft | 439 kts | 45° |
| 2026-04-26 17:00 | 49.36340 | 4.21120 | 36222 ft | 440 kts | 45° |
| 2026-04-26 17:01 | 49.40308 | 4.28265 | 36225 ft | 440 kts | 46° |
| 2026-04-26 17:01 | 49.44264 | 4.35437 | 36224 ft | 440 kts | 46° |
| 2026-04-26 17:02 | 49.48222 | 4.42619 | 36233 ft | 440 kts | 46° |
| 2026-04-26 17:02 | 49.51507 | 4.48602 | 36233 ft | 440 kts | 46° |
| 2026-04-26 17:03 | 49.55455 | 4.55809 | 36238 ft | 440 kts | 46° |
| 2026-04-26 17:03 | 49.59399 | 4.63008 | 36236 ft | 439 kts | 46° |
| 2026-04-26 17:04 | 49.63332 | 4.70215 | 36213 ft | 439 kts | 46° |
| 2026-04-26 17:04 | 49.65302 | 4.73838 | 35962 ft | 438 kts | 46° |
| 2026-04-26 17:04 | 49.67255 | 4.77439 | 35712 ft | 436 kts | 46° |
| 2026-04-26 17:05 | 49.69197 | 4.81022 | 35463 ft | 434 kts | 46° |
| 2026-04-26 17:05 | 49.71130 | 4.84593 | 35213 ft | 433 kts | 46° |
| 2026-04-26 17:05 | 49.73056 | 4.88155 | 34962 ft | 431 kts | 46° |
| 2026-04-26 17:05 | 49.74975 | 4.91703 | 34719 ft | 429 kts | 45° |
| 2026-04-26 17:06 | 49.76883 | 4.95229 | 34471 ft | 427 kts | 45° |
| 2026-04-26 17:06 | 49.78788 | 4.98758 | 34256 ft | 425 kts | 45° |
| 2026-04-26 17:06 | 49.80670 | 5.02254 | 33997 ft | 422 kts | 45° |
| 2026-04-26 17:06 | 49.82518 | 5.05693 | 33715 ft | 419 kts | 45° |
| 2026-04-26 17:07 | 49.84377 | 5.09158 | 33408 ft | 415 kts | 45° |
| 2026-04-26 17:07 | 49.86214 | 5.12590 | 32962 ft | 412 kts | 45° |
| 2026-04-26 17:07 | 49.88042 | 5.16011 | 32497 ft | 410 kts | 45° |
| 2026-04-26 17:07 | 49.89853 | 5.19402 | 32051 ft | 407 kts | 45° |
| 2026-04-26 17:08 | 49.91653 | 5.22773 | 31611 ft | 405 kts | 46° |
| 2026-04-26 17:08 | 49.93449 | 5.26139 | 31177 ft | 403 kts | 46° |
| 2026-04-26 17:08 | 49.95229 | 5.29474 | 30746 ft | 401 kts | 46° |
| 2026-04-26 17:08 | 49.97004 | 5.32807 | 30320 ft | 399 kts | 46° |
| 2026-04-26 17:09 | 49.98765 | 5.36118 | 29860 ft | 397 kts | 46° |
| 2026-04-26 17:09 | 49.99927 | 5.38303 | 29599 ft | 394 kts | 46° |
| 2026-04-26 17:09 | 50.02248 | 5.42685 | 29053 ft | 390 kts | 46° |
| 2026-04-26 17:09 | 50.03967 | 5.45929 | 28671 ft | 388 kts | 46° |
| 2026-04-26 17:10 | 50.05676 | 5.49165 | 28288 ft | 386 kts | 46° |
| 2026-04-26 17:10 | 50.07381 | 5.52392 | 27881 ft | 385 kts | 46° |
| 2026-04-26 17:10 | 50.09074 | 5.55600 | 27496 ft | 383 kts | 46° |
| 2026-04-26 17:10 | 50.10759 | 5.58804 | 27106 ft | 381 kts | 46° |
| 2026-04-26 17:11 | 50.12435 | 5.61991 | 26712 ft | 380 kts | 46° |
| 2026-04-26 17:11 | 50.14108 | 5.65170 | 26318 ft | 378 kts | 46° |
| 2026-04-26 17:11 | 50.15775 | 5.68341 | 25904 ft | 377 kts | 47° |
| 2026-04-26 17:11 | 50.17433 | 5.71503 | 25493 ft | 376 kts | 47° |
| 2026-04-26 17:12 | 50.20711 | 5.77768 | 25235 ft | 370 kts | 47° |
| 2026-04-26 17:12 | 50.22343 | 5.80885 | 25239 ft | 370 kts | 47° |
| 2026-04-26 17:13 | 50.25576 | 5.87080 | 25236 ft | 370 kts | 47° |
| 2026-04-26 17:13 | 50.27222 | 5.90241 | 25214 ft | 369 kts | 47° |
| 2026-04-26 17:13 | 50.30398 | 5.96369 | 24005 ft | 362 kts | 47° |
| 2026-04-26 17:14 | 50.31977 | 5.99416 | 23243 ft | 359 kts | 47° |
| 2026-04-26 17:14 | 50.35085 | 6.05418 | 21784 ft | 350 kts | 47° |
| 2026-04-26 17:14 | 50.36610 | 6.08369 | 21104 ft | 346 kts | 47° |
| 2026-04-26 17:15 | 50.39602 | 6.14184 | 19771 ft | 338 kts | 48° |
| 2026-04-26 17:15 | 50.41096 | 6.17090 | 18952 ft | 348 kts | 48° |
| 2026-04-26 17:15 | 50.42601 | 6.20007 | 18708 ft | 341 kts | 48° |
| 2026-04-26 17:16 | 50.44087 | 6.22890 | 18310 ft | 339 kts | 48° |
| 2026-04-26 17:16 | 50.45565 | 6.25765 | 17892 ft | 337 kts | 48° |
| 2026-04-26 17:16 | 50.47038 | 6.28635 | 17488 ft | 335 kts | 48° |
| 2026-04-26 17:16 | 50.48492 | 6.31475 | 17090 ft | 333 kts | 49° |
| 2026-04-26 17:17 | 50.49749 | 6.34517 | 16706 ft | 334 kts | 61° |
| 2026-04-26 17:17 | 50.50681 | 6.37841 | 16397 ft | 330 kts | 64° |
| 2026-04-26 17:17 | 50.51575 | 6.41120 | 16153 ft | 324 kts | 64° |
| 2026-04-26 17:17 | 50.52458 | 6.44361 | 15831 ft | 321 kts | 64° |
| 2026-04-26 17:18 | 50.53333 | 6.47573 | 15492 ft | 319 kts | 64° |
| 2026-04-26 17:18 | 50.54201 | 6.50763 | 15147 ft | 317 kts | 64° |
| 2026-04-26 17:18 | 50.55067 | 6.53938 | 14810 ft | 316 kts | 64° |
| 2026-04-26 17:18 | 50.55933 | 6.57113 | 14470 ft | 315 kts | 64° |
| 2026-04-26 17:19 | 50.57645 | 6.63417 | 13799 ft | 312 kts | 64° |
| 2026-04-26 17:19 | 50.58493 | 6.66549 | 13453 ft | 310 kts | 64° |
| 2026-04-26 17:19 | 50.59321 | 6.69612 | 13111 ft | 308 kts | 64° |
| 2026-04-26 17:20 | 50.60154 | 6.72703 | 12769 ft | 306 kts | 64° |
| 2026-04-26 17:20 | 50.60668 | 6.74815 | 12521 ft | 306 kts | 71° |
| 2026-04-26 17:20 | 50.61145 | 6.79187 | 12033 ft | 305 kts | 81° |
| 2026-04-26 17:20 | 50.61391 | 6.82497 | 11560 ft | 304 kts | 81° |
| 2026-04-26 17:21 | 50.61641 | 6.85795 | 11167 ft | 303 kts | 81° |
| 2026-04-26 17:21 | 50.61888 | 6.89078 | 10816 ft | 300 kts | 81° |
| 2026-04-26 17:21 | 50.62130 | 6.92338 | 10472 ft | 299 kts | 81° |
| 2026-04-26 17:21 | 50.62369 | 6.95573 | 10124 ft | 296 kts | 81° |
| 2026-04-26 17:22 | 50.62608 | 6.98786 | 9716 ft | 295 kts | 81° |
| 2026-04-26 17:22 | 50.62849 | 7.01992 | 9344 ft | 293 kts | 80° |
| 2026-04-26 17:22 | 50.63088 | 7.05174 | 8979 ft | 291 kts | 81° |
| 2026-04-26 17:22 | 50.63323 | 7.08329 | 8612 ft | 289 kts | 81° |
| 2026-04-26 17:23 | 50.63553 | 7.11453 | 8124 ft | 286 kts | 81° |
| 2026-04-26 17:23 | 50.63779 | 7.14570 | 7562 ft | 284 kts | 81° |
| 2026-04-26 17:23 | 50.64001 | 7.17647 | 7019 ft | 281 kts | 81° |
| 2026-04-26 17:23 | 50.64222 | 7.20706 | 6476 ft | 280 kts | 81° |
| 2026-04-26 17:24 | 50.64438 | 7.23688 | 6320 ft | 267 kts | 81° |
| 2026-04-26 17:24 | 50.64641 | 7.26514 | 6183 ft | 252 kts | 81° |
| 2026-04-26 17:24 | 50.64827 | 7.29168 | 6009 ft | 236 kts | 82° |
| 2026-04-26 17:24 | 50.65120 | 7.31665 | 5609 ft | 228 kts | 63° |
| 2026-04-26 17:25 | 50.66079 | 7.33539 | 5146 ft | 219 kts | 29° |
| 2026-04-26 17:25 | 50.67493 | 7.34226 | 4635 ft | 213 kts | 0° |
| 2026-04-26 17:25 | 50.68987 | 7.34158 | 4114 ft | 217 kts | 354° |
| 2026-04-26 17:25 | 50.70464 | 7.33945 | 3826 ft | 215 kts | 354° |
| 2026-04-26 17:26 | 50.71949 | 7.33692 | 3532 ft | 214 kts | 354° |
| 2026-04-26 17:26 | 50.73408 | 7.33327 | 3360 ft | 209 kts | 342° |
| 2026-04-26 17:26 | 50.74683 | 7.32201 | 3274 ft | 213 kts | 314° |
| 2026-04-26 17:26 | 50.75338 | 7.30155 | 3053 ft | 212 kts | 277° |
| 2026-04-26 17:27 | 50.75085 | 7.27860 | 3013 ft | 218 kts | 241° |
| 2026-04-26 17:27 | 50.74021 | 7.26171 | 3016 ft | 220 kts | 205° |
| 2026-04-26 17:27 | 50.72542 | 7.25729 | 2999 ft | 219 kts | 170° |
| 2026-04-26 17:27 | 50.71175 | 7.26692 | 3024 ft | 217 kts | 134° |
| 2026-04-26 17:28 | 50.70413 | 7.28692 | 3026 ft | 214 kts | 100° |
| 2026-04-26 17:28 | 50.70525 | 7.30977 | 3017 ft | 210 kts | 64° |
| 2026-04-26 17:28 | 50.71438 | 7.32753 | 3017 ft | 210 kts | 31° |
| 2026-04-26 17:28 | 50.72813 | 7.33441 | 3024 ft | 208 kts | 359° |
| 2026-04-26 17:29 | 50.74148 | 7.32868 | 3025 ft | 198 kts | 327° |
| 2026-04-26 17:29 | 50.74855 | 7.31965 | 3021 ft | 197 kts | 319° |
| 2026-04-26 17:29 | 50.76179 | 7.30043 | 2822 ft | 192 kts | 319° |
| 2026-04-26 17:29 | 50.77154 | 7.28634 | 2572 ft | 189 kts | 319° |
| 2026-04-26 17:30 | 50.78123 | 7.27239 | 2309 ft | 187 kts | 319° |
| 2026-04-26 17:30 | 50.79079 | 7.25863 | 2059 ft | 184 kts | 319° |
| 2026-04-26 17:30 | 50.79999 | 7.24537 | 1802 ft | 174 kts | 319° |
| 2026-04-26 17:30 | 50.80862 | 7.23290 | 1553 ft | 162 kts | 319° |
| 2026-04-26 17:31 | 50.81667 | 7.22128 | 1351 ft | 154 kts | 319° |
| 2026-04-26 17:31 | 50.82453 | 7.20992 | 1167 ft | 153 kts | 318° |
| 2026-04-26 17:31 | 50.83224 | 7.19878 | 977 ft | 146 kts | 318° |
| 2026-04-26 17:31 | 50.83962 | 7.18815 | 773 ft | 144 kts | 318° |
| 2026-04-26 17:32 | 50.84709 | 7.17738 | 575 ft | 145 kts | 319° |
| 2026-04-26 17:32 | 50.85451 | 7.16668 | 385 ft | 143 kts | 319° |
| 2026-04-26 17:32 | 50.86160 | 7.15642 | 292 ft | 122 kts | 317° |
| 2026-04-26 17:32 | 50.86649 | 7.14932 | 273 ft | 69 kts | 317° |
| 2026-04-26 17:33 | 50.86838 | 7.14617 | 263 ft | 31 kts | 300° |
| 2026-04-26 17:33 | 50.86881 | 7.14384 | 259 ft | 14 kts | 279° |
| 2026-04-26 17:33 | 50.86898 | 7.14214 | 255 ft | 18 kts | 279° |
| 2026-04-26 17:34 | 50.86907 | 7.14126 | 255 ft | 6 kts | 279° |
| 2026-04-26 17:34 | 50.86917 | 7.14045 | 254 ft | 10 kts | 281° |
| 2026-04-26 17:34 | 50.86943 | 7.13903 | 248 ft | 17 kts | 301° |
| 2026-04-26 17:34 | 50.87045 | 7.13746 | 242 ft | 23 kts | 317° |
| 2026-04-26 17:35 | 50.87170 | 7.13564 | 237 ft | 24 kts | 317° |
| 2026-04-26 17:35 | 50.87305 | 7.13370 | 232 ft | 28 kts | 317° |
| 2026-04-26 17:35 | 50.87434 | 7.13181 | 232 ft | 23 kts | 318° |
| 2026-04-26 17:35 | 50.87560 | 7.12999 | 232 ft | 25 kts | 317° |
| 2026-04-26 17:36 | 50.87690 | 7.12811 | 232 ft | 23 kts | 317° |
| 2026-04-26 17:36 | 50.87804 | 7.12647 | 232 ft | 19 kts | 318° |
| 2026-04-26 17:36 | 50.87908 | 7.12621 | 232 ft | 15 kts | 9° |
| 2026-04-26 17:36 | 50.88006 | 7.12559 | 232 ft | 17 kts | 306° |
| 2026-04-26 17:37 | 50.88072 | 7.12382 | 232 ft | 20 kts | 306° |
| 2026-04-26 17:37 | 50.88150 | 7.12211 | 233 ft | 14 kts | 306° |
| 2026-04-26 17:37 | 50.88192 | 7.12141 | 232 ft | 5 kts | 352° |
| 2026-04-26 17:38 | 50.88247 | 7.12199 | 232 ft | 0 kts | 36° |